Airfield :
LOGIN :

Register | Disclaimer

   EN    FR    IT 

 










Legend :    VFR   Marginal VFR   IFR   Intensive IFR   Very Intensive IFR
Visi :
Ceiling :
>= 8 km
>= 3000ft
5 to 8 km
1000 to 3000 ft
1500m to 5 km
500 to 1000 ft
800 to 1500m
200 to 500 ft
< 800m
< 200 ft
Symbols :   Thunderstorms  Fog  Heavy snow  Heavy precipitations  Wind > 20 kt
SIGMETs :     Misc.  Thunderstorms  Icing  Turbulence  Mountain Waves  Volcanic Ashes







- Airport Elevation : 255 ft


ENGC - Gullfaks C oil platform

CURRENT METAR :
  • 190150Z 32010KT 9999 FEW030 SCT040 BKN210 09/04 Q1028 W08/S4

EXPIRED METARs :
  • 190050Z 32012KT 9999 FEW030 BKN040 09/04 Q1028 W08/S4
  • 182350Z 33012KT 9999 FEW030 SCT150 09/03 Q1028 W08/S4
  • 182250Z 33012KT 9999 BKN040 09/02 Q1028 W08/S4

TAF TAF ENGC
Valid from the 19 at 00:00 until the 20 at 00:00 UTC


1900/1924 35015KT 9999 BKN030
BECMG 1901/1903 28012KT
BECMG 1909/1912 18022KT BKN010
TEMPO 1909/1915 3000 DZRA BR BKN006
BECMG 1915/1917 25020KT BKN005
PROB40 1915/1924 0200 FG VV001
No reported NOTAMs for that airfield.



MET'MAP, your aeronautical weather chart ! - Copyright ORBIFLY December 2007 - Disclaimer

ORBIFLY MET'MAP TEAM :

Programming & Development : Alexandra Zaïnal
Concept & Development : Baudouin d'Aumeries
Co-Development & Prog : Marc-Olivier Méhu
Technical & hardware support : Manuel Goepfert

Contact : metmap@orbifly.com




SOURCES & CREDITS :

   NOAA